createdAt,value
2022-10-11T00:02:17.487Z,3.50
2022-10-11T00:04:45.532Z,3.90
2022-10-11T00:07:15.051Z,3.13
2022-10-11T00:09:42.604Z,3.40
2022-10-11T00:12:10.277Z,3.67
2022-10-11T00:14:38.286Z,3.22
2022-10-11T00:17:08.758Z,3.00
2022-10-11T00:19:36.637Z,3.40
2022-10-11T00:22:04.685Z,3.10
2022-10-11T00:24:32.437Z,3.40
2022-10-11T00:27:00.189Z,4.25
2022-10-11T00:29:27.996Z,3.38
2022-10-11T00:31:55.702Z,4.00
2022-10-11T00:34:24.823Z,4.60
2022-10-11T00:36:52.819Z,3.78
2022-10-11T00:39:20.556Z,4.03
2022-10-11T00:41:49.189Z,3.78
2022-10-11T00:44:19.049Z,4.23
2022-10-11T00:46:55.609Z,3.90
2022-10-11T00:49:30.530Z,3.45
2022-10-11T00:52:00.367Z,4.03
2022-10-11T00:54:30.812Z,3.58
2022-10-11T00:57:01.938Z,3.40
2022-10-11T00:59:32.157Z,3.72
2022-10-11T01:01:59.777Z,3.70
2022-10-11T01:04:28.737Z,3.92
2022-10-11T01:06:56.724Z,4.05
2022-10-11T01:09:24.863Z,3.63
2022-10-11T01:11:54.207Z,3.33
2022-10-11T01:15:06.458Z,3.88
2022-10-11T01:17:41.814Z,4.13
2022-10-11T01:20:25.161Z,3.97
2022-10-11T01:23:20.462Z,3.50
2022-10-11T01:26:00.846Z,4.30
2022-10-11T01:28:40.833Z,4.82
2022-10-11T01:31:15.637Z,3.90
2022-10-11T01:33:47.209Z,3.70
2022-10-11T01:36:19.686Z,3.88
2022-10-11T01:38:50.671Z,4.13
2022-10-11T01:41:22.303Z,3.75
2022-10-11T01:43:50.812Z,3.42
2022-10-11T01:46:20.927Z,3.80
2022-10-11T01:48:50.877Z,3.70
2022-10-11T01:51:21.116Z,3.67
2022-10-11T01:54:16.407Z,3.53
2022-10-11T01:56:57.382Z,3.75
2022-10-11T01:59:40.286Z,3.17
2022-10-11T02:02:14.946Z,3.38
2022-10-11T02:04:45.704Z,3.85
2022-10-11T02:07:19.445Z,3.33
2022-10-11T02:09:49.548Z,3.40
2022-10-11T02:12:23.283Z,3.70
2022-10-11T02:14:52.297Z,3.38
2022-10-11T02:17:23.805Z,3.50
2022-10-11T02:19:54.424Z,3.28
2022-10-11T02:22:25.375Z,3.50
2022-10-11T02:24:57.305Z,3.10
2022-10-11T02:27:29.392Z,3.40
2022-10-11T02:29:58.632Z,2.87
2022-10-11T02:32:28.278Z,3.17
2022-10-11T02:34:59.840Z,2.78
2022-10-11T02:37:32.638Z,2.92
2022-10-11T02:40:04.217Z,2.85
2022-10-11T02:42:38.215Z,2.85
2022-10-11T02:45:09.174Z,3.50
2022-10-11T02:47:38.141Z,3.42
2022-10-11T02:50:11.238Z,3.00
2022-10-11T02:52:39.192Z,3.00
2022-10-11T02:55:09.569Z,3.92
2022-10-11T02:57:37.392Z,3.00
2022-10-11T03:00:06.133Z,2.97
2022-10-11T03:02:33.968Z,3.13
2022-10-11T03:05:03.104Z,3.55
2022-10-11T03:07:30.711Z,3.03
2022-10-11T03:09:58.671Z,3.60
2022-10-11T03:12:26.581Z,2.97
2022-10-11T03:14:54.580Z,3.50
2022-10-11T03:17:36.262Z,3.65
2022-10-11T03:20:07.358Z,3.05
2022-10-11T03:22:35.158Z,3.75
2022-10-11T03:25:04.317Z,3.47
2022-10-11T03:27:34.311Z,3.60
2022-10-11T03:30:02.068Z,3.87
2022-10-11T03:32:30.551Z,4.30
2022-10-11T03:34:58.931Z,4.30
2022-10-11T03:37:28.105Z,3.72
2022-10-11T03:39:55.826Z,3.40
2022-10-11T03:42:23.615Z,3.35
2022-10-11T03:44:52.251Z,3.75
2022-10-11T03:47:19.976Z,3.70
2022-10-11T03:49:47.540Z,3.05
2022-10-11T03:52:15.294Z,3.95
2022-10-11T03:54:45.328Z,4.33
2022-10-11T03:57:12.890Z,4.03
2022-10-11T03:59:40.566Z,3.83
2022-10-11T04:02:08.194Z,3.95
2022-10-11T04:04:36.315Z,3.60
2022-10-11T04:07:03.932Z,3.90
2022-10-11T04:09:31.918Z,3.88
2022-10-11T04:12:00.847Z,3.95
2022-10-11T04:14:28.571Z,3.93
2022-10-11T04:17:00.230Z,3.90
2022-10-11T04:19:28.714Z,4.30
2022-10-11T04:21:56.503Z,3.95
2022-10-11T04:24:24.443Z,3.92
2022-10-11T04:26:52.362Z,4.30
2022-10-11T04:29:21.718Z,3.97
2022-10-11T04:31:49.368Z,4.30
2022-10-11T04:34:17.450Z,4.38
2022-10-11T04:36:49.049Z,4.88
2022-10-11T04:39:17.748Z,5.03
2022-10-11T04:41:45.503Z,6.10
2022-10-11T04:44:13.051Z,4.45
2022-10-11T04:46:42.303Z,5.22
2022-10-11T04:49:10.113Z,4.65
2022-10-11T04:51:38.472Z,4.72
2022-10-11T04:54:06.351Z,5.18
2022-10-11T04:56:34.944Z,5.07
2022-10-11T04:59:03.352Z,4.95
2022-10-11T05:01:31.231Z,5.35
2022-10-11T05:04:00.424Z,5.10
2022-10-11T05:06:28.181Z,6.13
2022-10-11T05:08:55.868Z,6.18
2022-10-11T05:11:23.444Z,7.07
2022-10-11T05:13:51.504Z,6.00
2022-10-11T05:16:19.918Z,5.88
2022-10-11T05:18:47.464Z,6.07
2022-10-11T05:21:19.815Z,5.63
2022-10-11T05:23:48.906Z,6.35
2022-10-11T05:26:17.715Z,5.80
2022-10-11T05:28:45.998Z,6.05
2022-10-11T05:31:13.847Z,6.30
2022-10-11T05:33:42.055Z,6.28
2022-10-11T05:36:10.346Z,5.95
2022-10-11T05:38:39.603Z,6.43
2022-10-11T05:41:09.587Z,6.30
2022-10-11T05:43:37.500Z,6.40
2022-10-11T05:46:05.850Z,6.45
2022-10-11T05:48:34.567Z,6.53
2022-10-11T05:51:03.352Z,6.95
2022-10-11T05:53:31.705Z,7.13
2022-10-11T05:56:00.767Z,7.10
2022-10-11T05:58:29.013Z,7.47
2022-10-11T06:00:57.071Z,5.72
2022-10-11T06:03:24.903Z,6.05
2022-10-11T06:05:56.783Z,6.40
2022-10-11T06:08:25.841Z,4.90
2022-10-11T06:10:53.654Z,4.18
2022-10-11T06:13:22.793Z,5.05
2022-10-11T06:15:50.736Z,4.85
2022-10-11T06:18:18.505Z,5.20
2022-10-11T06:20:46.264Z,4.93
2022-10-11T06:23:14.060Z,5.00
2022-10-11T06:25:41.624Z,5.00
2022-10-11T06:28:09.573Z,4.80
2022-10-11T06:30:39.816Z,5.28
2022-10-11T06:33:08.357Z,4.43
2022-10-11T06:35:35.930Z,5.55
2022-10-11T06:38:03.943Z,5.37
2022-10-11T06:40:31.551Z,5.40
2022-10-11T06:42:59.639Z,5.53
2022-10-11T06:45:27.433Z,5.17
2022-10-11T06:47:56.789Z,5.68
2022-10-11T06:50:41.008Z,6.00
2022-10-11T06:53:12.447Z,6.82
2022-10-11T06:55:39.938Z,5.83
2022-10-11T06:58:07.452Z,6.90
2022-10-11T07:00:34.975Z,6.80
2022-10-11T07:03:04.732Z,6.55
2022-10-11T07:05:33.373Z,6.75
2022-10-11T07:08:01.615Z,6.65
2022-10-11T07:10:29.429Z,7.68
2022-10-11T07:12:56.896Z,11.25
2022-10-11T07:15:24.404Z,8.80
2022-10-11T07:17:51.971Z,8.77
2022-10-11T07:20:20.911Z,8.75
2022-10-11T07:22:48.446Z,8.10
2022-10-11T07:25:16.011Z,6.30
2022-10-11T07:27:43.678Z,6.47
2022-10-11T07:30:12.101Z,6.73
2022-10-11T07:32:39.627Z,6.10
2022-10-11T07:35:07.667Z,6.10
2022-10-11T07:37:36.786Z,6.18
2022-10-11T07:40:06.835Z,5.93
2022-10-11T07:42:34.620Z,6.33
2022-10-11T07:45:02.316Z,6.28
2022-10-11T07:47:29.848Z,5.80
2022-10-11T07:49:57.547Z,6.75
2022-10-11T07:52:25.667Z,6.90
2022-10-11T07:54:54.541Z,6.47
2022-10-11T07:57:22.096Z,7.57
2022-10-11T07:59:50.441Z,8.25
2022-10-11T08:02:18.036Z,8.50
2022-10-11T08:04:45.538Z,8.80
2022-10-11T08:07:13.089Z,7.95
2022-10-11T08:09:40.736Z,8.82
2022-10-11T08:12:10.034Z,9.50
2022-10-11T08:14:37.644Z,9.57
2022-10-11T08:17:05.214Z,9.82
2022-10-11T08:19:32.785Z,8.75
2022-10-11T08:22:00.461Z,8.47
2022-10-11T08:24:27.976Z,8.85
2022-10-11T08:26:56.043Z,8.98
2022-10-11T08:29:25.489Z,7.97
2022-10-11T08:31:52.983Z,8.05
2022-10-11T08:34:20.569Z,8.00
2022-10-11T08:36:48.531Z,8.02
2022-10-11T08:39:16.080Z,7.53
2022-10-11T08:41:47.023Z,7.85
2022-10-11T08:44:46.418Z,6.90
2022-10-11T08:47:22.577Z,7.72
2022-10-11T08:49:50.798Z,7.13
2022-10-11T08:52:22.991Z,6.82
2022-10-11T08:54:53.148Z,7.03
2022-10-11T08:57:22.700Z,5.40
2022-10-11T08:59:54.562Z,5.60
2022-10-11T09:02:49.331Z,5.05
2022-10-11T09:05:20.743Z,4.72
2022-10-11T09:07:54.036Z,4.10
2022-10-11T09:10:50.954Z,3.83
2022-10-11T09:13:43.559Z,3.38
2022-10-11T09:16:18.633Z,3.67
2022-10-11T09:18:55.807Z,3.72
2022-10-11T09:21:30.742Z,2.90
2022-10-11T09:24:22.850Z,3.27
2022-10-11T09:26:56.145Z,2.85
2022-10-11T09:29:36.054Z,3.50
2022-10-11T09:32:14.077Z,2.95
2022-10-11T09:34:41.795Z,3.20
2022-10-11T09:37:17.461Z,3.03
2022-10-11T09:39:50.803Z,3.22
2022-10-11T09:42:18.341Z,3.33
2022-10-11T09:44:48.294Z,3.13
2022-10-11T09:47:19.538Z,2.95
2022-10-11T09:49:50.372Z,3.28
2022-10-11T09:52:20.048Z,2.60
2022-10-11T09:54:49.368Z,3.00
2022-10-11T09:57:22.259Z,2.65
2022-10-11T10:00:01.503Z,2.87
2022-10-11T10:02:31.404Z,3.97
2022-10-11T10:05:01.962Z,3.05
2022-10-11T10:07:31.468Z,3.22
2022-10-11T10:09:59.525Z,2.80
2022-10-11T10:12:30.079Z,2.47
2022-10-11T10:15:08.129Z,2.80
2022-10-11T10:17:37.335Z,3.08
2022-10-11T10:20:06.261Z,2.40
2022-10-11T10:22:35.524Z,2.17
2022-10-11T10:25:07.887Z,1.90
2022-10-11T10:27:35.545Z,2.60
2022-10-11T10:30:14.398Z,2.15
2022-10-11T10:32:48.670Z,2.45
2022-10-11T10:35:27.381Z,2.00
2022-10-11T10:38:02.047Z,1.90
2022-10-11T10:40:34.021Z,2.17
2022-10-11T10:43:01.572Z,2.10
2022-10-11T10:45:34.509Z,2.25
2022-10-11T10:48:16.675Z,2.00
2022-10-11T10:50:50.653Z,1.90
2022-10-11T10:53:26.485Z,1.80
2022-10-11T10:56:00.551Z,2.07
2022-10-11T10:58:46.784Z,1.90
2022-10-11T11:01:16.366Z,1.48
2022-10-11T11:03:48.604Z,2.25
2022-10-11T11:06:23.241Z,3.42
2022-10-11T11:09:01.317Z,3.17
2022-10-11T11:11:48.750Z,1.70
2022-10-11T11:14:26.728Z,1.60
2022-10-11T11:16:58.366Z,1.38
2022-10-11T11:19:38.302Z,3.53
2022-10-11T11:22:11.781Z,2.08
2022-10-11T11:24:45.778Z,1.75
2022-10-11T11:27:19.588Z,2.60
2022-10-11T11:29:55.642Z,2.40
2022-10-11T11:32:29.433Z,1.30
2022-10-11T11:35:01.158Z,1.45
2022-10-11T11:37:32.292Z,1.42
2022-10-11T11:40:04.077Z,3.13
2022-10-11T11:42:36.129Z,1.23
2022-10-11T11:45:06.567Z,1.45
2022-10-11T11:47:36.803Z,1.00
2022-10-11T11:50:22.129Z,1.92
2022-10-11T11:52:53.648Z,1.85
2022-10-11T11:55:27.820Z,0.98
2022-10-11T11:58:06.772Z,1.40
2022-10-11T12:00:38.168Z,1.30
2022-10-11T12:03:10.884Z,1.27
2022-10-11T12:05:40.077Z,1.80
2022-10-11T12:08:09.056Z,1.30
2022-10-11T12:10:38.672Z,1.42
2022-10-11T12:13:21.500Z,1.40
2022-10-11T12:16:10.757Z,1.25
2022-10-11T12:18:49.530Z,1.50
2022-10-11T12:21:27.412Z,2.28
2022-10-11T12:23:56.127Z,1.60
2022-10-11T12:26:38.469Z,1.23
2022-10-11T12:29:42.163Z,1.42
2022-10-11T12:32:48.939Z,1.65
2022-10-11T12:35:43.448Z,1.63
2022-10-11T12:38:21.994Z,1.50
2022-10-11T12:40:51.163Z,2.38
2022-10-11T12:43:33.716Z,1.30
2022-10-11T12:46:34.909Z,1.20
2022-10-11T12:49:14.183Z,4.65
2022-10-11T12:51:46.770Z,2.33
2022-10-11T12:54:33.323Z,3.50
2022-10-11T12:57:26.383Z,1.30
2022-10-11T12:59:54.020Z,2.85
2022-10-11T13:02:28.851Z,1.30
2022-10-11T13:05:07.559Z,2.78
2022-10-11T13:07:36.038Z,1.73
2022-10-11T13:10:06.688Z,2.08
2022-10-11T13:12:40.389Z,2.03
2022-10-11T13:15:12.660Z,1.30
2022-10-11T13:17:42.894Z,1.30
2022-10-11T13:20:17.699Z,1.65
2022-10-11T13:22:47.213Z,1.30
2022-10-11T13:25:19.861Z,1.50
2022-10-11T13:27:48.202Z,1.05
2022-10-11T13:30:19.398Z,1.45
2022-10-11T13:32:47.337Z,1.30
2022-10-11T13:35:22.349Z,1.52
2022-10-11T13:37:52.480Z,1.00
2022-10-11T13:40:22.372Z,1.27
2022-10-11T13:42:51.544Z,1.38
2022-10-11T13:45:21.624Z,1.60
2022-10-11T13:47:50.055Z,1.10
2022-10-11T13:50:26.390Z,1.15
2022-10-11T13:52:57.054Z,1.20
2022-10-11T13:55:29.109Z,1.30
2022-10-11T13:57:58.673Z,1.40
2022-10-11T14:00:32.697Z,1.20
2022-10-11T14:03:03.914Z,1.53
2022-10-11T14:05:36.948Z,1.05
2022-10-11T14:08:07.583Z,1.58
2022-10-11T14:10:36.582Z,1.20
2022-10-11T14:13:07.814Z,1.30
2022-10-11T14:15:37.303Z,1.30
2022-10-11T14:18:27.868Z,1.23
2022-10-11T14:20:55.593Z,1.10
2022-10-11T14:23:23.142Z,1.30
2022-10-11T14:25:54.117Z,1.67
2022-10-11T14:28:21.692Z,1.70
2022-10-11T14:30:49.336Z,1.55
2022-10-11T14:33:16.971Z,1.53
2022-10-11T14:35:44.451Z,1.15
2022-10-11T14:38:12.807Z,1.15
2022-10-11T14:40:40.551Z,1.17
2022-10-11T14:43:09.448Z,1.90
2022-10-11T14:45:37.017Z,1.40
2022-10-11T14:48:05.156Z,1.42
2022-10-11T14:50:40.368Z,1.70
2022-10-11T14:53:08.988Z,1.23
2022-10-11T14:55:37.368Z,1.23
2022-10-11T14:58:04.959Z,1.50
2022-10-11T15:00:34.277Z,1.20
2022-10-11T15:03:02.093Z,1.67
2022-10-11T15:05:35.930Z,1.20
2022-10-11T15:08:03.616Z,1.38
2022-10-11T15:10:35.793Z,1.33
2022-10-11T15:13:04.669Z,1.23
2022-10-11T15:15:36.623Z,1.02
2022-10-11T15:18:06.001Z,1.50
2022-10-11T15:20:35.798Z,1.20
2022-10-11T15:23:05.939Z,1.05
2022-10-11T15:25:33.802Z,1.40
2022-10-11T15:28:01.639Z,1.20
2022-10-11T15:30:31.580Z,1.60
2022-10-11T15:33:00.652Z,1.25
2022-10-11T15:35:29.550Z,1.17
2022-10-11T15:37:59.343Z,1.60
2022-10-11T15:40:28.756Z,1.70
2022-10-11T15:42:56.726Z,1.40
2022-10-11T15:45:24.868Z,1.58
2022-10-11T15:47:52.747Z,1.42
2022-10-11T15:50:35.051Z,1.77
2022-10-11T15:53:03.807Z,1.27
2022-10-11T15:55:31.992Z,1.23
2022-10-11T15:58:01.068Z,1.40
2022-10-11T16:00:29.310Z,1.48
2022-10-11T16:02:57.885Z,1.15
2022-10-11T16:05:28.549Z,1.17
2022-10-11T16:07:56.232Z,1.55
2022-10-11T16:10:23.982Z,1.23
2022-10-11T16:12:51.529Z,1.13
2022-10-11T16:15:19.093Z,1.40
2022-10-11T16:17:47.069Z,1.17
2022-10-11T16:20:15.488Z,1.45
2022-10-11T16:22:44.425Z,1.40
2022-10-11T16:25:11.998Z,1.15
2022-10-11T16:27:39.544Z,1.20
2022-10-11T16:30:11.997Z,1.73
2022-10-11T16:32:40.039Z,1.07
2022-10-11T16:35:09.546Z,1.40
2022-10-11T16:37:37.267Z,1.77
2022-10-11T16:40:07.440Z,1.95
2022-10-11T16:42:35.172Z,1.40
2022-10-11T16:45:02.753Z,1.85
2022-10-11T16:47:30.744Z,1.40
2022-10-11T16:49:59.169Z,1.80
2022-10-11T16:52:26.774Z,2.30
2022-10-11T16:54:54.588Z,2.30
2022-10-11T16:57:23.473Z,2.10
2022-10-11T16:59:51.534Z,2.42
2022-10-11T17:02:20.423Z,2.05
2022-10-11T17:04:50.724Z,2.10
2022-10-11T17:07:18.770Z,1.88
2022-10-11T17:09:48.664Z,2.15
2022-10-11T17:12:17.698Z,1.95
2022-10-11T17:14:47.525Z,2.38
2022-10-11T17:17:15.693Z,2.30
2022-10-11T17:19:45.328Z,2.33
2022-10-11T17:22:14.967Z,1.90
2022-10-11T17:24:42.736Z,2.17
2022-10-11T17:27:10.346Z,1.98
2022-10-11T17:29:38.396Z,2.28
2022-10-11T17:32:07.642Z,2.05
2022-10-11T17:34:35.449Z,2.42
2022-10-11T17:37:06.860Z,2.10
2022-10-11T17:39:39.312Z,2.10
2022-10-11T17:42:07.525Z,1.88
2022-10-11T17:44:36.903Z,2.00
2022-10-11T17:47:05.195Z,1.88
2022-10-11T17:49:36.415Z,2.50
2022-10-11T17:52:04.250Z,2.25
2022-10-11T17:54:32.628Z,2.55
2022-10-11T17:57:00.433Z,2.35
2022-10-11T17:59:28.785Z,2.00
2022-10-11T18:01:56.593Z,2.53
2022-10-11T18:04:27.151Z,2.10
2022-10-11T18:06:56.086Z,2.28
2022-10-11T18:09:24.942Z,2.05
2022-10-11T18:11:52.756Z,2.60
2022-10-11T18:14:21.295Z,2.72
2022-10-11T18:16:48.969Z,2.50
2022-10-11T18:19:21.094Z,2.67
2022-10-11T18:21:48.636Z,2.83
2022-10-11T18:24:21.935Z,2.80
2022-10-11T18:26:49.668Z,3.55
2022-10-11T18:29:17.254Z,2.70
2022-10-11T18:31:45.093Z,3.13
2022-10-11T18:34:14.895Z,2.20
2022-10-11T18:36:46.954Z,2.10
2022-10-11T18:39:17.096Z,2.20
2022-10-11T18:41:45.249Z,2.70
2022-10-11T18:44:15.186Z,2.97
2022-10-11T18:46:43.105Z,3.00
2022-10-11T18:49:11.413Z,2.47
2022-10-11T18:51:40.191Z,3.30
2022-10-11T18:54:09.612Z,2.60
2022-10-11T18:56:39.525Z,2.95
2022-10-11T18:59:07.733Z,2.85
2022-10-11T19:01:38.272Z,2.75
2022-10-11T19:04:07.615Z,3.30
2022-10-11T19:06:37.849Z,3.60
2022-10-11T19:09:07.467Z,2.90
2022-10-11T19:11:39.014Z,3.22
2022-10-11T19:14:11.419Z,2.88
2022-10-11T19:16:41.430Z,2.83
2022-10-11T19:19:09.684Z,2.92
2022-10-11T19:21:37.655Z,2.65
2022-10-11T19:24:06.789Z,3.10
2022-10-11T19:26:36.039Z,2.80
2022-10-11T19:29:06.508Z,2.85
2022-10-11T19:31:37.012Z,3.15
2022-10-11T19:34:05.019Z,3.47
2022-10-11T19:36:36.458Z,2.80
2022-10-11T19:39:05.919Z,3.13
2022-10-11T19:41:33.471Z,3.00
2022-10-11T19:44:01.015Z,2.97
2022-10-11T19:46:50.512Z,3.60
2022-10-11T19:49:21.435Z,2.97
2022-10-11T19:51:49.492Z,3.08
2022-10-11T19:54:17.621Z,3.30
2022-10-11T19:56:45.498Z,3.05
2022-10-11T19:59:16.822Z,2.75
2022-10-11T20:01:49.402Z,3.58
2022-10-11T20:07:09.090Z,2.65
2022-10-11T20:09:38.110Z,3.60
2022-10-11T20:12:06.031Z,3.50
2022-10-11T20:14:33.952Z,3.25
2022-10-11T20:17:02.178Z,3.05
2022-10-11T20:19:31.846Z,3.58
2022-10-11T20:22:00.249Z,3.43
2022-10-11T20:24:32.948Z,3.65
2022-10-11T20:27:01.878Z,3.70
2022-10-11T20:29:29.560Z,3.40
2022-10-11T20:31:58.773Z,3.45
2022-10-11T20:34:31.175Z,3.58
2022-10-11T20:37:00.359Z,3.63
2022-10-11T20:39:27.931Z,3.80
2022-10-11T20:41:55.650Z,3.65
2022-10-11T20:44:23.812Z,3.13
2022-10-11T20:46:51.358Z,2.92
2022-10-11T20:49:20.777Z,3.05
2022-10-11T20:51:48.376Z,3.22
2022-10-11T20:54:17.737Z,3.47
2022-10-11T20:56:45.273Z,3.58
2022-10-11T20:59:12.829Z,3.55
2022-10-11T21:01:41.922Z,3.28
2022-10-11T21:04:17.719Z,3.20
2022-10-11T21:06:46.610Z,3.65
2022-10-11T21:09:16.585Z,3.22
2022-10-11T21:11:46.693Z,3.60
2022-10-11T21:14:14.472Z,3.67
2022-10-11T21:16:42.072Z,3.55
2022-10-11T21:19:14.386Z,3.70
2022-10-11T21:21:41.963Z,4.13
2022-10-11T21:24:09.506Z,3.70
2022-10-11T21:26:37.434Z,4.00
2022-10-11T21:29:06.501Z,4.05
2022-10-11T21:31:34.700Z,4.20
2022-10-11T21:34:02.773Z,4.20
2022-10-11T21:36:30.540Z,4.47
2022-10-11T21:38:58.488Z,4.63
2022-10-11T21:41:29.174Z,4.68
2022-10-11T21:43:57.091Z,4.53
2022-10-11T21:46:47.561Z,4.40
2022-10-11T21:49:15.327Z,4.95
2022-10-11T21:51:43.065Z,4.70
2022-10-11T21:54:10.849Z,4.88
2022-10-11T21:56:38.536Z,5.10
2022-10-11T21:59:09.419Z,5.30
2022-10-11T22:01:42.140Z,5.53
2022-10-11T22:04:09.945Z,5.60
2022-10-11T22:06:38.225Z,5.57
2022-10-11T22:09:06.897Z,5.65
2022-10-11T22:11:34.429Z,6.05
2022-10-11T22:14:02.539Z,5.50
2022-10-11T22:16:30.067Z,4.80
2022-10-11T22:18:59.933Z,5.75
2022-10-11T22:21:28.038Z,5.75
2022-10-11T22:23:55.865Z,5.30
2022-10-11T22:26:25.122Z,5.85
2022-10-11T22:28:53.496Z,5.57
2022-10-11T22:31:22.494Z,5.65
2022-10-11T22:33:50.104Z,5.57
2022-10-11T22:36:19.330Z,5.43
2022-10-11T22:38:47.316Z,5.68
2022-10-11T22:41:14.888Z,5.20
2022-10-11T22:43:42.479Z,5.25
2022-10-11T22:46:10.053Z,5.90
2022-10-11T22:48:37.948Z,5.43
2022-10-11T22:51:05.700Z,5.40
2022-10-11T22:53:34.667Z,6.05
2022-10-11T22:56:02.284Z,5.20
2022-10-11T22:58:29.973Z,5.85
2022-10-11T23:00:57.475Z,5.15
2022-10-11T23:03:25.183Z,5.45
2022-10-11T23:05:56.489Z,5.90
2022-10-11T23:08:24.588Z,6.20
2022-10-11T23:10:53.873Z,5.28
2022-10-11T23:13:21.679Z,5.60
2022-10-11T23:15:49.622Z,6.05
2022-10-11T23:18:17.668Z,6.72
2022-10-11T23:20:45.723Z,5.85
2022-10-11T23:23:13.488Z,6.32
2022-10-11T23:25:41.048Z,5.40
2022-10-11T23:28:10.569Z,5.80
2022-10-11T23:30:40.423Z,5.25
2022-10-11T23:33:08.010Z,5.82
2022-10-11T23:35:36.376Z,6.25
2022-10-11T23:38:03.932Z,6.03
2022-10-11T23:40:31.643Z,5.75
2022-10-11T23:42:59.367Z,6.28
2022-10-11T23:45:28.824Z,5.57
2022-10-11T23:47:56.335Z,5.78
2022-10-11T23:50:23.823Z,5.60
2022-10-11T23:52:51.500Z,6.38
2022-10-11T23:55:19.261Z,6.00
2022-10-11T23:57:47.492Z,6.50
